createdAt,value
2023-01-02T00:00:31.811Z,12.84
2023-01-02T00:01:31.778Z,12.88
2023-01-02T00:02:31.976Z,12.99
2023-01-02T00:03:31.905Z,12.87
2023-01-02T00:04:31.729Z,12.96
2023-01-02T00:05:31.726Z,12.99
2023-01-02T00:06:31.711Z,12.91
2023-01-02T00:07:31.700Z,12.93
2023-01-02T00:08:31.688Z,12.87
2023-01-02T00:09:31.685Z,13.09
2023-01-02T00:10:31.672Z,12.93
2023-01-02T00:11:31.676Z,12.93
2023-01-02T00:12:31.662Z,13.02
2023-01-02T00:13:31.636Z,12.95
2023-01-02T00:14:31.614Z,12.83
2023-01-02T00:15:31.603Z,12.86
2023-01-02T00:16:31.611Z,12.84
2023-01-02T00:17:31.598Z,12.76
2023-01-02T00:18:31.594Z,12.86
2023-01-02T00:19:31.566Z,12.73
2023-01-02T00:20:31.562Z,12.80
2023-01-02T00:21:31.550Z,12.69
2023-01-02T00:22:31.531Z,12.84
2023-01-02T00:23:31.518Z,12.87
2023-01-02T00:24:31.523Z,12.87
2023-01-02T00:25:31.496Z,12.66
2023-01-02T00:26:31.503Z,12.79
2023-01-02T00:27:31.501Z,12.72
2023-01-02T00:28:31.471Z,12.80
2023-01-02T00:29:31.465Z,12.87
2023-01-02T00:30:37.983Z,12.68
2023-01-02T00:31:32.480Z,12.77
2023-01-02T00:32:31.432Z,12.73
2023-01-02T00:33:31.416Z,12.72
2023-01-02T00:34:31.405Z,12.79
2023-01-02T00:35:31.392Z,12.88
2023-01-02T00:36:31.399Z,12.88
2023-01-02T00:37:31.372Z,12.81
2023-01-02T00:38:31.365Z,12.86
2023-01-02T00:39:31.344Z,12.80
2023-01-02T00:40:31.351Z,12.83
2023-01-02T00:41:31.332Z,12.76
2023-01-02T00:42:31.313Z,12.77
2023-01-02T00:43:31.326Z,12.88
2023-01-02T00:44:31.294Z,12.86
2023-01-02T00:45:31.283Z,12.73
2023-01-02T00:46:31.355Z,12.80
2023-01-02T00:47:31.254Z,12.77
2023-01-02T00:48:31.250Z,12.80
2023-01-02T00:49:31.226Z,12.80
2023-01-02T00:50:31.224Z,12.80
2023-01-02T00:51:31.228Z,12.79
2023-01-02T00:52:31.252Z,12.88
2023-01-02T00:53:31.187Z,12.72
2023-01-02T00:54:31.176Z,12.77
2023-01-02T00:55:31.159Z,12.83
2023-01-02T00:56:31.189Z,12.81
2023-01-02T00:57:31.178Z,12.80
2023-01-02T00:58:31.145Z,12.81
2023-01-02T00:59:31.148Z,12.83
2023-01-02T01:00:31.147Z,12.80
2023-01-02T01:01:31.229Z,12.87
2023-01-02T01:02:31.166Z,12.87
2023-01-02T01:03:31.115Z,12.88
2023-01-02T01:04:31.065Z,12.87
2023-01-02T01:05:31.058Z,12.81
2023-01-02T01:06:31.038Z,12.79
2023-01-02T01:07:31.028Z,12.77
2023-01-02T01:08:31.027Z,12.79
2023-01-02T01:09:31.024Z,12.73
2023-01-02T01:10:31.006Z,12.83
2023-01-02T01:11:30.987Z,12.81
2023-01-02T01:12:30.983Z,12.81
2023-01-02T01:13:30.977Z,12.65
2023-01-02T01:14:30.957Z,12.71
2023-01-02T01:15:30.964Z,12.79
2023-01-02T01:16:30.949Z,12.81
2023-01-02T01:17:30.922Z,12.73
2023-01-02T01:18:30.913Z,12.84
2023-01-02T01:19:30.909Z,12.84
2023-01-02T01:20:30.901Z,12.86
2023-01-02T01:21:30.879Z,12.79
2023-01-02T01:22:30.886Z,12.79
2023-01-02T01:23:30.855Z,12.83
2023-01-02T01:24:30.859Z,12.81
2023-01-02T01:25:30.832Z,12.77
2023-01-02T01:26:30.811Z,12.84
2023-01-02T01:27:30.805Z,12.81
2023-01-02T01:28:30.806Z,12.84
2023-01-02T01:29:30.819Z,12.90
2023-01-02T01:30:30.786Z,12.83
2023-01-02T01:31:30.807Z,12.91
2023-01-02T01:32:30.754Z,12.91
2023-01-02T01:33:30.748Z,12.90
2023-01-02T01:34:30.733Z,12.99
2023-01-02T01:35:30.751Z,12.98
2023-01-02T01:36:30.716Z,13.01
2023-01-02T01:37:30.707Z,12.98
2023-01-02T01:38:30.691Z,12.99
2023-01-02T01:39:30.667Z,13.04
2023-01-02T01:40:30.680Z,13.13
2023-01-02T01:41:30.679Z,13.17
2023-01-02T01:42:30.635Z,13.13
2023-01-02T01:43:30.630Z,13.13
2023-01-02T01:44:30.624Z,13.17
2023-01-02T01:45:30.671Z,13.13
2023-01-02T01:46:30.611Z,13.21
2023-01-02T01:47:30.619Z,13.16
2023-01-02T01:48:30.573Z,13.19
2023-01-02T01:49:30.561Z,13.13
2023-01-02T01:50:30.554Z,13.21
2023-01-02T01:51:30.568Z,13.09
2023-01-02T01:52:30.531Z,13.14
2023-01-02T01:53:30.518Z,13.09
2023-01-02T01:54:30.526Z,13.11
2023-01-02T01:55:30.502Z,13.06
2023-01-02T01:56:30.488Z,12.96
2023-01-02T01:57:30.479Z,13.01
2023-01-02T01:58:30.466Z,12.98
2023-01-02T01:59:30.455Z,12.95
2023-01-02T02:00:30.449Z,12.98
2023-01-02T02:01:30.532Z,12.96
2023-01-02T02:02:30.598Z,13.09
2023-01-02T02:03:30.427Z,13.05
2023-01-02T02:04:30.417Z,13.04
2023-01-02T02:05:30.394Z,13.06
2023-01-02T02:06:30.393Z,13.08
2023-01-02T02:07:30.367Z,13.19
2023-01-02T02:08:30.363Z,13.13
2023-01-02T02:09:30.344Z,13.24
2023-01-02T02:10:30.329Z,13.21
2023-01-02T02:11:30.338Z,13.19
2023-01-02T02:12:30.303Z,13.24
2023-01-02T02:13:30.315Z,13.26
2023-01-02T02:14:30.299Z,13.27
2023-01-02T02:15:30.267Z,13.26
2023-01-02T02:16:30.279Z,13.26
2023-01-02T02:17:30.253Z,13.29
2023-01-02T02:18:30.239Z,13.36
2023-01-02T02:19:30.351Z,13.30
2023-01-02T02:20:30.231Z,13.38
2023-01-02T02:21:30.213Z,13.38
2023-01-02T02:22:30.192Z,13.38
2023-01-02T02:23:30.203Z,13.35
2023-01-02T02:24:30.167Z,13.46
2023-01-02T02:25:30.165Z,13.42
2023-01-02T02:26:30.172Z,13.40
2023-01-02T02:27:30.147Z,13.38
2023-01-02T02:28:30.132Z,13.38
2023-01-02T02:29:30.125Z,13.42
2023-01-02T02:30:30.120Z,13.53
2023-01-02T02:31:30.157Z,13.49
2023-01-02T02:32:30.093Z,13.42
2023-01-02T02:33:30.069Z,13.57
2023-01-02T02:34:30.072Z,13.47
2023-01-02T02:35:30.067Z,13.47
2023-01-02T02:36:30.068Z,13.49
2023-01-02T02:37:30.035Z,13.60
2023-01-02T02:38:30.020Z,13.72
2023-01-02T02:39:30.017Z,13.72
2023-01-02T02:40:29.996Z,13.73
2023-01-02T02:41:29.989Z,13.76
2023-01-02T02:42:29.981Z,13.78
2023-01-02T02:43:29.974Z,13.86
2023-01-02T02:44:29.955Z,13.82
2023-01-02T02:45:29.998Z,13.85
2023-01-02T02:46:29.924Z,13.83
2023-01-02T02:47:29.932Z,13.78
2023-01-02T02:48:29.903Z,13.80
2023-01-02T02:49:29.905Z,13.79
2023-01-02T02:50:29.889Z,13.80
2023-01-02T02:51:29.890Z,13.88
2023-01-02T02:52:29.876Z,13.85
2023-01-02T02:53:29.858Z,13.82
2023-01-02T02:54:29.833Z,13.78
2023-01-02T02:55:29.828Z,13.83
2023-01-02T02:56:29.824Z,13.78
2023-01-02T02:57:29.807Z,13.72
2023-01-02T02:58:29.815Z,13.76
2023-01-02T02:59:29.784Z,13.76
2023-01-02T03:00:29.778Z,13.72
2023-01-02T03:01:30.826Z,13.73
2023-01-02T03:02:29.962Z,13.75
2023-01-02T03:03:29.817Z,13.65
2023-01-02T03:04:29.741Z,13.64
2023-01-02T03:05:29.743Z,13.58
2023-01-02T03:06:29.729Z,13.63
2023-01-02T03:07:29.722Z,13.60
2023-01-02T03:08:33.282Z,13.51
2023-01-02T03:09:29.692Z,13.57
2023-01-02T03:10:29.674Z,13.61
2023-01-02T03:11:29.665Z,13.58
2023-01-02T03:12:29.645Z,13.57
2023-01-02T03:13:40.451Z,13.58
2023-01-02T03:14:30.622Z,13.61
2023-01-02T03:15:29.635Z,13.60
2023-01-02T03:16:29.660Z,13.60
2023-01-02T03:17:29.595Z,13.71
2023-01-02T03:18:29.582Z,13.71
2023-01-02T03:19:29.588Z,13.71
2023-01-02T03:20:29.580Z,13.68
2023-01-02T03:21:31.412Z,13.72
2023-01-02T03:22:29.536Z,13.72
2023-01-02T03:23:29.668Z,13.82
2023-01-02T03:24:29.526Z,13.79
2023-01-02T03:25:29.517Z,13.80
2023-01-02T03:26:29.508Z,13.75
2023-01-02T03:27:29.489Z,13.78
2023-01-02T03:28:29.482Z,13.83
2023-01-02T03:29:29.476Z,13.78
2023-01-02T03:30:29.481Z,13.79
2023-01-02T03:31:29.451Z,13.78
2023-01-02T03:32:29.434Z,13.76
2023-01-02T03:33:29.431Z,13.72
2023-01-02T03:34:29.413Z,13.78
2023-01-02T03:35:29.446Z,13.86
2023-01-02T03:36:29.400Z,13.83
2023-01-02T03:37:29.377Z,13.82
2023-01-02T03:38:29.370Z,13.85
2023-01-02T03:39:29.416Z,13.83
2023-01-02T03:40:29.360Z,13.75
2023-01-02T03:41:29.334Z,13.80
2023-01-02T03:42:29.360Z,13.75
2023-01-02T03:43:29.309Z,13.73
2023-01-02T03:44:29.298Z,13.76
2023-01-02T03:45:29.294Z,13.73
2023-01-02T03:46:29.346Z,13.72
2023-01-02T03:47:29.277Z,13.73
2023-01-02T03:48:29.286Z,13.75
2023-01-02T03:49:29.247Z,13.78
2023-01-02T03:50:29.234Z,13.90
2023-01-02T03:51:29.236Z,13.90
2023-01-02T03:52:29.234Z,13.94
2023-01-02T03:53:29.222Z,13.79
2023-01-02T03:54:29.197Z,13.78
2023-01-02T03:55:29.217Z,13.79
2023-01-02T03:56:29.181Z,13.68
2023-01-02T03:57:29.171Z,13.57
2023-01-02T03:58:29.153Z,13.67
2023-01-02T03:59:29.134Z,13.63
2023-01-02T04:00:29.135Z,13.55
2023-01-02T04:01:29.259Z,13.54
2023-01-02T04:02:29.385Z,13.57
2023-01-02T04:03:29.106Z,13.60
2023-01-02T04:04:29.086Z,13.63
2023-01-02T04:05:29.076Z,13.60
2023-01-02T04:06:29.073Z,13.61
2023-01-02T04:07:29.085Z,13.65
2023-01-02T04:08:29.046Z,13.68
2023-01-02T04:09:36.561Z,13.76
2023-01-02T04:10:29.037Z,13.71
2023-01-02T04:11:29.028Z,13.73
2023-01-02T04:12:28.996Z,13.72
2023-01-02T04:13:28.993Z,13.72
2023-01-02T04:14:28.981Z,13.75
2023-01-02T04:15:29.048Z,13.73
2023-01-02T04:16:28.979Z,13.72
2023-01-02T04:17:28.947Z,13.68
2023-01-02T04:18:28.953Z,13.65
2023-01-02T04:19:28.945Z,13.68
2023-01-02T04:20:28.908Z,13.63
2023-01-02T04:21:28.925Z,13.63
2023-01-02T04:22:28.910Z,13.64
2023-01-02T04:23:28.911Z,13.68
2023-01-02T04:24:28.889Z,13.72
2023-01-02T04:25:28.900Z,13.61
2023-01-02T04:26:28.877Z,13.71
2023-01-02T04:27:28.895Z,13.68
2023-01-02T04:28:28.827Z,13.68
2023-01-02T04:29:28.829Z,13.67
2023-01-02T04:30:28.817Z,13.71
2023-01-02T04:31:28.864Z,13.72
2023-01-02T04:32:28.799Z,13.72
2023-01-02T04:33:28.781Z,13.72
2023-01-02T04:34:28.796Z,13.72
2023-01-02T04:35:28.760Z,13.63
2023-01-02T04:36:28.741Z,13.68
2023-01-02T04:37:28.729Z,13.71
2023-01-02T04:38:28.737Z,13.71
2023-01-02T04:39:28.733Z,13.68
2023-01-02T04:40:28.707Z,13.76
2023-01-02T04:41:28.700Z,13.79
2023-01-02T04:42:28.685Z,13.83
2023-01-02T04:43:28.689Z,13.82
2023-01-02T04:44:28.654Z,13.80
2023-01-02T04:45:28.644Z,13.78
2023-01-02T04:46:28.679Z,13.85
2023-01-02T04:47:28.632Z,13.90
2023-01-02T04:48:28.611Z,13.97
2023-01-02T04:49:28.635Z,13.90
2023-01-02T04:50:28.604Z,14.00
2023-01-02T04:51:28.585Z,13.94
2023-01-02T04:52:32.074Z,13.91
2023-01-02T04:53:29.563Z,13.90
2023-01-02T04:54:28.556Z,13.94
2023-01-02T04:55:28.556Z,13.91
2023-01-02T04:56:28.541Z,13.97
2023-01-02T04:57:28.535Z,14.00
2023-01-02T04:58:28.509Z,14.08
2023-01-02T04:59:28.523Z,14.13
2023-01-02T05:00:28.492Z,14.08
2023-01-02T05:01:28.604Z,14.11
2023-01-02T05:02:28.633Z,14.16
2023-01-02T05:03:28.526Z,14.16
2023-01-02T05:04:28.447Z,14.22
2023-01-02T05:05:28.447Z,14.19
2023-01-02T05:06:28.432Z,14.28
2023-01-02T05:07:28.429Z,14.28
2023-01-02T05:08:28.402Z,14.26
2023-01-02T05:09:28.391Z,14.30
2023-01-02T05:10:28.405Z,14.38
2023-01-02T05:11:28.372Z,14.37
2023-01-02T05:12:28.374Z,14.38
2023-01-02T05:13:28.373Z,14.38
2023-01-02T05:14:28.343Z,14.22
2023-01-02T05:15:28.387Z,14.33
2023-01-02T05:16:28.398Z,14.37
2023-01-02T05:17:28.311Z,14.37
2023-01-02T05:18:28.294Z,14.37
2023-01-02T05:19:28.291Z,14.38
2023-01-02T05:20:28.274Z,14.37
2023-01-02T05:21:28.267Z,14.36
2023-01-02T05:22:28.270Z,14.34
2023-01-02T05:23:28.241Z,14.40
2023-01-02T05:24:28.241Z,14.37
2023-01-02T05:25:28.237Z,14.45
2023-01-02T05:26:28.225Z,14.49
2023-01-02T05:27:28.199Z,14.53
2023-01-02T05:28:31.152Z,14.51
2023-01-02T05:29:29.193Z,14.45
2023-01-02T05:30:28.183Z,14.46
2023-01-02T05:31:28.209Z,14.31
2023-01-02T05:32:28.150Z,14.37
2023-01-02T05:33:28.133Z,14.41
2023-01-02T05:34:28.134Z,14.56
2023-01-02T05:35:32.490Z,14.49
2023-01-02T05:36:28.114Z,14.40
2023-01-02T05:37:28.093Z,14.48
2023-01-02T05:38:28.079Z,14.51
2023-01-02T05:39:28.083Z,14.56
2023-01-02T05:40:28.066Z,14.55
2023-01-02T05:41:28.061Z,14.63
2023-01-02T05:42:28.036Z,14.58
2023-01-02T05:43:28.038Z,14.58
2023-01-02T05:44:28.041Z,14.56
2023-01-02T05:45:28.010Z,14.66
2023-01-02T05:46:28.091Z,14.58
2023-01-02T05:47:35.555Z,14.67
2023-01-02T05:48:27.967Z,14.56
2023-01-02T05:49:27.958Z,14.69
2023-01-02T05:50:27.957Z,14.55
2023-01-02T05:51:27.959Z,14.59
2023-01-02T05:52:27.938Z,14.56
2023-01-02T05:53:27.922Z,14.61
2023-01-02T05:54:27.920Z,14.61
2023-01-02T05:55:27.907Z,14.61
2023-01-02T05:56:27.891Z,14.61
2023-01-02T05:57:27.905Z,14.53
2023-01-02T05:58:27.875Z,14.52
2023-01-02T05:59:27.863Z,14.53
2023-01-02T06:00:27.861Z,14.45
2023-01-02T06:01:27.900Z,14.53
2023-01-02T06:02:28.001Z,14.53
2023-01-02T06:03:27.962Z,14.49
2023-01-02T06:04:27.810Z,14.49
2023-01-02T06:05:27.789Z,14.52
2023-01-02T06:06:27.792Z,14.56
2023-01-02T06:07:27.776Z,14.58
2023-01-02T06:08:27.779Z,14.51
2023-01-02T06:09:27.748Z,14.55
2023-01-02T06:10:27.753Z,14.48
2023-01-02T06:11:27.739Z,14.59
2023-01-02T06:12:27.725Z,14.53
2023-01-02T06:13:27.714Z,14.52
2023-01-02T06:14:27.718Z,14.48
2023-01-02T06:15:27.695Z,14.49
2023-01-02T06:16:27.899Z,14.49
2023-01-02T06:17:27.676Z,14.55
2023-01-02T06:18:27.649Z,14.49
2023-01-02T06:19:27.682Z,14.67
2023-01-02T06:20:27.638Z,14.63
2023-01-02T06:21:27.631Z,14.58
2023-01-02T06:22:27.623Z,14.58
2023-01-02T06:23:27.609Z,14.69
2023-01-02T06:24:27.649Z,14.67
2023-01-02T06:25:27.580Z,14.64
2023-01-02T06:26:32.756Z,14.61
2023-01-02T06:27:28.569Z,14.58
2023-01-02T06:28:27.558Z,14.70
2023-01-02T06:29:27.549Z,14.64
2023-01-02T06:30:27.548Z,14.66
2023-01-02T06:31:27.598Z,14.73
2023-01-02T06:32:27.515Z,14.69
2023-01-02T06:33:27.491Z,14.71
2023-01-02T06:34:27.487Z,14.69
2023-01-02T06:35:27.500Z,14.79
2023-01-02T06:36:27.496Z,14.78
2023-01-02T06:37:27.451Z,14.79
2023-01-02T06:38:27.443Z,14.73
2023-01-02T06:39:27.445Z,14.78
2023-01-02T06:40:27.425Z,14.77
2023-01-02T06:41:27.416Z,14.70
2023-01-02T06:42:27.416Z,14.82
2023-01-02T06:43:27.387Z,14.71
2023-01-02T06:44:27.378Z,14.74
2023-01-02T06:45:27.435Z,14.73
2023-01-02T06:46:27.353Z,14.77
2023-01-02T06:47:27.361Z,14.83
2023-01-02T06:48:27.355Z,14.73
2023-01-02T06:49:27.333Z,14.71
2023-01-02T06:50:34.449Z,14.69
2023-01-02T06:51:28.440Z,14.79
2023-01-02T06:52:27.293Z,14.71
2023-01-02T06:53:27.274Z,14.70
2023-01-02T06:54:27.290Z,14.64
2023-01-02T06:55:27.268Z,14.69
2023-01-02T06:56:27.259Z,14.73
2023-01-02T06:57:27.240Z,14.70
2023-01-02T06:58:27.241Z,14.70
2023-01-02T06:59:27.227Z,14.73
2023-01-02T07:00:27.211Z,14.77
2023-01-02T07:01:27.367Z,14.70
2023-01-02T07:02:27.263Z,14.73
2023-01-02T07:03:27.176Z,14.73
2023-01-02T07:04:27.181Z,14.71
2023-01-02T07:05:27.156Z,14.73
2023-01-02T07:06:27.156Z,14.66
2023-01-02T07:07:27.174Z,14.69
2023-01-02T07:08:27.115Z,14.69
2023-01-02T07:09:27.114Z,14.70
2023-01-02T07:10:27.122Z,14.63
2023-01-02T07:11:27.094Z,14.61
2023-01-02T07:12:27.099Z,14.71
2023-01-02T07:13:27.063Z,14.73
2023-01-02T07:14:27.069Z,14.70
2023-01-02T07:15:27.045Z,14.70
2023-01-02T07:16:27.078Z,14.69
2023-01-02T07:17:27.072Z,14.73
2023-01-02T07:18:27.027Z,14.71
2023-01-02T07:19:27.013Z,14.73
2023-01-02T07:20:26.994Z,14.69
2023-01-02T07:21:26.992Z,14.78
2023-01-02T07:22:26.982Z,14.77
2023-01-02T07:23:26.987Z,14.82
2023-01-02T07:24:26.956Z,14.86
2023-01-02T07:25:26.948Z,14.85
2023-01-02T07:26:26.939Z,14.86
2023-01-02T07:27:26.943Z,14.83
2023-01-02T07:28:26.915Z,14.86
2023-01-02T07:29:26.918Z,14.86
2023-01-02T07:30:26.900Z,14.74
2023-01-02T07:31:26.885Z,14.71
2023-01-02T07:32:27.772Z,14.73
2023-01-02T07:33:26.859Z,14.74
2023-01-02T07:34:26.858Z,14.77
2023-01-02T07:35:26.868Z,14.70
2023-01-02T07:36:26.832Z,14.78
2023-01-02T07:37:26.807Z,14.71
2023-01-02T07:38:26.800Z,14.77
2023-01-02T07:39:26.801Z,14.86
2023-01-02T07:40:31.908Z,14.73
2023-01-02T07:41:27.790Z,14.73
2023-01-02T07:42:26.757Z,14.71
2023-01-02T07:43:26.771Z,14.77
2023-01-02T07:44:26.748Z,14.67
2023-01-02T07:45:26.733Z,14.71
2023-01-02T07:46:26.762Z,14.69
2023-01-02T07:47:26.733Z,14.82
2023-01-02T07:48:26.700Z,14.74
2023-01-02T07:49:26.686Z,14.77
2023-01-02T07:50:26.684Z,14.67
2023-01-02T07:51:27.771Z,14.79
2023-01-02T07:52:26.648Z,14.82
2023-01-02T07:53:26.659Z,14.83
2023-01-02T07:54:26.632Z,14.86
2023-01-02T07:55:26.636Z,14.86
2023-01-02T07:56:26.633Z,14.93
2023-01-02T07:57:26.601Z,14.97
2023-01-02T07:58:26.596Z,14.87
2023-01-02T07:59:26.584Z,14.95
2023-01-02T08:00:27.945Z,15.03
2023-01-02T08:01:26.692Z,14.96
2023-01-02T08:02:26.684Z,14.95
2023-01-02T08:03:26.533Z,15.01
2023-01-02T08:04:26.648Z,14.99
2023-01-02T08:05:26.519Z,15.05
2023-01-02T08:06:26.520Z,14.99
2023-01-02T08:07:26.504Z,14.93
2023-01-02T08:08:26.490Z,15.01
2023-01-02T08:09:26.496Z,15.01
2023-01-02T08:10:26.462Z,15.11
2023-01-02T08:11:26.470Z,15.08
2023-01-02T08:12:26.437Z,15.10
2023-01-02T08:13:26.440Z,15.10
2023-01-02T08:14:26.431Z,15.14
2023-01-02T08:15:26.418Z,15.22
2023-01-02T08:16:26.482Z,15.17
2023-01-02T08:17:26.381Z,15.17
2023-01-02T08:18:26.379Z,15.14
2023-01-02T08:19:26.370Z,15.15
2023-01-02T08:20:26.416Z,15.11
2023-01-02T08:21:26.355Z,15.20
2023-01-02T08:22:26.330Z,15.17
2023-01-02T08:23:26.330Z,15.20
2023-01-02T08:24:26.309Z,15.15
2023-01-02T08:25:26.319Z,15.14
2023-01-02T08:26:26.299Z,15.14
2023-01-02T08:27:26.300Z,15.25
2023-01-02T08:28:26.284Z,15.35
2023-01-02T08:29:26.256Z,15.23
2023-01-02T08:30:26.288Z,15.23
2023-01-02T08:31:26.279Z,15.23
2023-01-02T08:32:26.255Z,15.29
2023-01-02T08:33:26.270Z,15.32
2023-01-02T08:34:26.231Z,15.36
2023-01-02T08:35:37.995Z,15.35
2023-01-02T08:36:27.184Z,15.41
2023-01-02T08:37:26.173Z,15.36
2023-01-02T08:38:26.152Z,15.30
2023-01-02T08:39:26.150Z,15.36
2023-01-02T08:40:26.230Z,15.32
2023-01-02T08:41:26.134Z,15.29
2023-01-02T08:42:26.115Z,15.30
2023-01-02T08:43:26.179Z,15.40
2023-01-02T08:44:26.152Z,15.45
2023-01-02T08:45:26.093Z,15.41
2023-01-02T08:46:26.134Z,15.36
2023-01-02T08:47:26.062Z,15.44
2023-01-02T08:48:26.051Z,15.41
2023-01-02T08:49:26.055Z,15.48
2023-01-02T08:50:26.048Z,15.48
2023-01-02T08:51:26.025Z,15.54
2023-01-02T08:52:26.002Z,15.52
2023-01-02T08:53:26.008Z,15.48
2023-01-02T08:54:25.982Z,15.56
2023-01-02T08:55:25.974Z,15.60
2023-01-02T08:56:25.973Z,15.59
2023-01-02T08:57:25.945Z,15.65
2023-01-02T08:58:25.940Z,15.59
2023-01-02T08:59:25.969Z,15.59
2023-01-02T09:00:26.022Z,15.59
2023-01-02T09:01:26.068Z,15.65
2023-01-02T09:02:26.197Z,15.60
2023-01-02T09:03:25.939Z,15.66
2023-01-02T09:04:25.869Z,15.63
2023-01-02T09:05:25.881Z,15.73
2023-01-02T09:06:25.846Z,15.70
2023-01-02T09:07:25.847Z,15.68
2023-01-02T09:08:25.839Z,15.73
2023-01-02T09:09:25.826Z,15.81
2023-01-02T09:10:25.939Z,15.80
2023-01-02T09:11:25.807Z,15.76
2023-01-02T09:12:25.803Z,15.93
2023-01-02T09:13:25.780Z,15.85
2023-01-02T09:14:25.779Z,15.85
2023-01-02T09:15:25.867Z,15.88
2023-01-02T09:16:25.744Z,15.81
2023-01-02T09:17:25.739Z,15.95
2023-01-02T09:18:29.387Z,15.93
2023-01-02T09:19:25.705Z,15.87
2023-01-02T09:20:25.752Z,15.83
2023-01-02T09:21:25.690Z,15.88
2023-01-02T09:22:25.694Z,15.88
2023-01-02T09:23:25.669Z,15.95
2023-01-02T09:24:25.654Z,15.95
2023-01-02T09:25:25.646Z,15.96
2023-01-02T09:26:25.647Z,15.99
2023-01-02T09:27:25.636Z,15.95
2023-01-02T09:28:25.616Z,16.03
2023-01-02T09:29:25.606Z,16.09
2023-01-02T09:30:25.583Z,16.09
2023-01-02T09:31:25.618Z,16.06
2023-01-02T09:32:25.579Z,16.09
2023-01-02T09:33:25.600Z,16.06
2023-01-02T09:34:25.545Z,15.98
2023-01-02T09:35:25.545Z,16.09
2023-01-02T09:36:25.527Z,16.17
2023-01-02T09:37:25.518Z,16.14
2023-01-02T09:38:25.516Z,16.22
2023-01-02T09:39:31.950Z,16.14
2023-01-02T09:40:26.489Z,16.10
2023-01-02T09:41:25.481Z,16.24
2023-01-02T09:42:25.458Z,16.06
2023-01-02T09:43:25.456Z,16.21
2023-01-02T09:44:25.452Z,16.13
2023-01-02T09:45:25.432Z,16.16
2023-01-02T09:46:25.447Z,16.09
2023-01-02T09:47:25.436Z,16.14
2023-01-02T09:48:25.407Z,16.17
2023-01-02T09:49:25.407Z,16.06
2023-01-02T09:50:25.378Z,16.13
2023-01-02T09:51:25.372Z,16.16
2023-01-02T09:52:25.368Z,16.16
2023-01-02T09:53:25.353Z,16.28
2023-01-02T09:54:25.350Z,16.16
2023-01-02T09:55:25.354Z,16.14
2023-01-02T09:56:29.039Z,16.17
2023-01-02T09:57:26.323Z,16.18
2023-01-02T09:58:25.307Z,16.24
2023-01-02T09:59:25.288Z,16.21
2023-01-02T10:00:25.278Z,16.21
2023-01-02T10:01:25.277Z,16.18
2023-01-02T10:02:25.299Z,16.22
2023-01-02T10:03:25.411Z,16.24
2023-01-02T10:04:25.259Z,16.22
2023-01-02T10:05:25.230Z,16.21
2023-01-02T10:06:25.212Z,16.17
2023-01-02T10:07:25.197Z,16.26
2023-01-02T10:08:31.756Z,16.22
2023-01-02T10:09:26.197Z,16.16
2023-01-02T10:10:25.165Z,16.18
2023-01-02T10:11:25.156Z,16.16
2023-01-02T10:12:25.152Z,16.17
2023-01-02T10:13:44.092Z,16.18
2023-01-02T10:14:33.874Z,16.14
2023-01-02T10:15:26.137Z,16.05
2023-01-02T10:16:25.203Z,16.17
2023-01-02T10:17:25.127Z,16.10
2023-01-02T10:18:25.152Z,16.09
2023-01-02T10:19:25.120Z,16.00
2023-01-02T10:20:25.147Z,15.99
2023-01-02T10:21:25.053Z,16.09
2023-01-02T10:22:25.062Z,16.05
2023-01-02T10:23:25.038Z,16.02
2023-01-02T10:24:25.029Z,16.08
2023-01-02T10:25:25.016Z,16.13
2023-01-02T10:26:24.999Z,16.13
2023-01-02T10:27:24.992Z,15.99
2023-01-02T10:28:24.985Z,16.03
2023-01-02T10:29:24.981Z,16.02
2023-01-02T10:30:24.985Z,16.03
2023-01-02T10:31:24.991Z,15.93
2023-01-02T10:32:24.939Z,16.00
2023-01-02T10:33:24.950Z,16.02
2023-01-02T10:34:24.926Z,15.91
2023-01-02T10:35:24.931Z,16.03
2023-01-02T10:36:24.894Z,15.99
2023-01-02T10:37:24.880Z,15.99
2023-01-02T10:38:24.869Z,16.06
2023-01-02T10:39:24.860Z,16.05
2023-01-02T10:40:24.852Z,16.05
2023-01-02T10:41:24.842Z,16.10
2023-01-02T10:42:24.833Z,16.08
2023-01-02T10:43:24.821Z,16.02
2023-01-02T10:44:24.807Z,16.05
2023-01-02T10:45:24.831Z,16.16
2023-01-02T10:46:24.838Z,16.02
2023-01-02T10:47:24.776Z,16.14
2023-01-02T10:48:24.779Z,16.14
2023-01-02T10:49:24.754Z,16.18
2023-01-02T10:50:24.756Z,16.06
2023-01-02T10:51:24.767Z,16.14
2023-01-02T10:52:24.739Z,16.21
2023-01-02T10:53:24.711Z,16.24
2023-01-02T10:54:24.711Z,16.13
2023-01-02T10:55:24.697Z,16.06
2023-01-02T10:56:24.693Z,16.10
2023-01-02T10:57:24.689Z,16.03
2023-01-02T10:58:24.672Z,16.17
2023-01-02T10:59:24.653Z,16.13
2023-01-02T11:00:28.014Z,16.09
2023-01-02T11:01:24.729Z,16.00
2023-01-02T11:02:24.724Z,15.96
2023-01-02T11:03:24.629Z,15.90
2023-01-02T11:04:24.619Z,15.90
2023-01-02T11:05:24.586Z,15.90
2023-01-02T11:06:29.997Z,15.87
2023-01-02T11:07:25.576Z,15.83
2023-01-02T11:08:24.553Z,15.76
2023-01-02T11:09:24.562Z,15.81
2023-01-02T11:10:24.530Z,15.77
2023-01-02T11:11:24.529Z,15.78
2023-01-02T11:12:27.447Z,15.76
2023-01-02T11:13:24.519Z,15.81
2023-01-02T11:14:24.520Z,15.78
2023-01-02T11:15:24.496Z,15.73
2023-01-02T11:16:24.661Z,15.73
2023-01-02T11:17:24.457Z,15.70
2023-01-02T11:18:32.972Z,15.76
2023-01-02T11:19:33.310Z,15.66
2023-01-02T11:20:33.338Z,15.72
2023-01-02T11:21:31.939Z,15.78
2023-01-02T11:22:24.404Z,15.70
2023-01-02T11:23:24.433Z,15.60
2023-01-02T11:24:24.374Z,15.59
2023-01-02T11:25:24.376Z,15.65
2023-01-02T11:26:24.369Z,15.62
2023-01-02T11:27:24.339Z,15.59
2023-01-02T11:28:24.349Z,15.45
2023-01-02T11:29:24.318Z,15.48
2023-01-02T11:30:24.321Z,15.41
2023-01-02T11:31:24.352Z,15.35
2023-01-02T11:32:24.308Z,15.29
2023-01-02T11:33:24.284Z,15.38
2023-01-02T11:34:24.271Z,15.27
2023-01-02T11:35:24.265Z,15.33
2023-01-02T11:36:24.575Z,15.30
2023-01-02T11:37:24.269Z,15.32
2023-01-02T11:38:29.485Z,15.27
2023-01-02T11:39:25.257Z,15.26
2023-01-02T11:40:24.212Z,15.29
2023-01-02T11:41:24.210Z,15.33
2023-01-02T11:42:24.180Z,15.38
2023-01-02T11:43:24.183Z,15.41
2023-01-02T11:44:24.160Z,15.36
2023-01-02T11:45:24.247Z,15.47
2023-01-02T11:46:24.151Z,15.47
2023-01-02T11:47:24.151Z,15.45
2023-01-02T11:48:24.114Z,15.50
2023-01-02T11:49:24.107Z,15.56
2023-01-02T11:50:24.124Z,15.63
2023-01-02T11:51:24.088Z,15.60
2023-01-02T11:52:24.079Z,15.66
2023-01-02T11:53:24.072Z,15.56
2023-01-02T11:54:24.067Z,15.51
2023-01-02T11:55:24.069Z,15.50
2023-01-02T11:56:24.033Z,15.52
2023-01-02T11:57:24.037Z,15.48
2023-01-02T11:58:24.014Z,15.52
2023-01-02T11:59:23.996Z,15.50
2023-01-02T12:00:23.985Z,15.58
2023-01-02T12:01:24.037Z,15.59
2023-01-02T12:02:24.119Z,15.65
2023-01-02T12:03:24.103Z,15.60
2023-01-02T12:04:23.943Z,15.68
2023-01-02T12:05:23.998Z,15.77
2023-01-02T12:06:23.954Z,15.68
2023-01-02T12:07:23.931Z,15.59
2023-01-02T12:08:23.901Z,15.59
2023-01-02T12:09:23.896Z,15.60
2023-01-02T12:10:23.882Z,15.58
2023-01-02T12:11:23.901Z,15.54
2023-01-02T12:12:23.858Z,15.54
2023-01-02T12:13:23.873Z,15.50
2023-01-02T12:14:23.837Z,15.50
2023-01-02T12:15:23.828Z,15.48
2023-01-02T12:16:23.819Z,15.52
2023-01-02T12:17:23.796Z,15.48
2023-01-02T12:18:23.799Z,15.43
2023-01-02T12:19:23.803Z,15.48
2023-01-02T12:20:23.766Z,15.44
2023-01-02T12:21:24.188Z,15.45
2023-01-02T12:22:23.741Z,15.48
2023-01-02T12:23:24.156Z,15.58
2023-01-02T12:24:23.738Z,15.52
2023-01-02T12:25:23.724Z,15.56
2023-01-02T12:26:23.741Z,15.52
2023-01-02T12:27:23.719Z,15.51
2023-01-02T12:28:23.686Z,15.62
2023-01-02T12:29:47.849Z,15.72
2023-01-02T12:30:24.674Z,15.80
2023-01-02T12:31:23.707Z,15.84
2023-01-02T12:32:23.731Z,15.85
2023-01-02T12:33:23.634Z,15.91
2023-01-02T12:34:23.706Z,15.85
2023-01-02T12:35:23.665Z,15.84
2023-01-02T12:36:23.595Z,15.87
2023-01-02T12:37:23.605Z,15.88
2023-01-02T12:38:26.195Z,15.95
2023-01-02T12:39:24.567Z,15.98
2023-01-02T12:40:23.557Z,15.88
2023-01-02T12:41:23.558Z,15.91
2023-01-02T12:42:23.533Z,16.03
2023-01-02T12:43:23.681Z,15.99
2023-01-02T12:44:26.077Z,15.99
2023-01-02T12:45:24.527Z,16.09
2023-01-02T12:46:23.584Z,16.02
2023-01-02T12:47:23.479Z,16.08
2023-01-02T12:48:23.466Z,16.06
2023-01-02T12:49:23.457Z,16.05
2023-01-02T12:50:23.447Z,16.22
2023-01-02T12:51:23.460Z,16.17
2023-01-02T12:52:23.423Z,16.28